Time;durP1;ratioP1;P1;durP2;ratioP2;P2;SDS_P1;SDS_P2;PMS_P1;PMS_P2;Temp;Humidity;BMP_temperature;BMP_pressure;BME280_temperature;BME280_humidity;BME280_pressure;Samples;Min_cycle;Max_cycle;Signal;HPM_P1;HPM_P2
2022/05/05 00:02:20;;;;;;;11.57;7.70;;;;;;;;;;5001353;28;20038;-76
2022/05/05 00:04:46;;;;;;;10.50;7.75;;;;;;;;;;4987434;28;20058;-76
2022/05/05 00:07:12;;;;;;;11.93;8.18;;;;;;;;;;5021856;28;20107;-76
2022/05/05 00:09:38;;;;;;;11.18;8.05;;;;;;;;;;5020448;28;20107;-76
2022/05/05 00:14:49;;;;;;;12.10;7.85;;;;;;;;;;5025433;28;20050;-77
2022/05/05 00:17:15;;;;;;;9.95;8.18;;;;;;;;;;5019461;28;20093;-76
2022/05/05 00:19:42;;;;;;;10.98;8.02;;;;;;;;;;5024805;28;20461;-76
2022/05/05 00:22:09;;;;;;;10.73;8.32;;;;;;;;;;5031307;28;20161;-76
2022/05/05 00:24:37;;;;;;;8.68;7.40;;;;;;;;;;5017503;28;20053;-76
2022/05/05 00:27:03;;;;;;;9.30;7.32;;;;;;;;;;4990255;28;20042;-76
2022/05/05 00:29:29;;;;;;;11.50;7.45;;;;;;;;;;5025860;28;20108;-76
2022/05/05 00:31:55;;;;;;;10.85;7.40;;;;;;;;;;5017252;28;21019;-76
2022/05/05 00:34:21;;;;;;;13.90;7.90;;;;;;;;;;5021135;28;20060;-77
2022/05/05 00:36:47;;;;;;;9.25;7.47;;;;;;;;;;4982793;28;20180;-76
2022/05/05 00:39:14;;;;;;;10.10;7.68;;;;;;;;;;5016333;28;20129;-76
2022/05/05 00:41:42;;;;;;;9.07;7.53;;;;;;;;;;4985734;28;20068;-76
2022/05/05 00:44:08;;;;;;;10.88;7.63;;;;;;;;;;4990366;28;20073;-76
2022/05/05 00:46:35;;;;;;;10.95;7.25;;;;;;;;;;4989241;28;20064;-77
2022/05/05 00:49:01;;;;;;;10.90;7.82;;;;;;;;;;4985548;28;20069;-77
2022/05/05 00:51:28;;;;;;;8.75;7.35;;;;;;;;;;5017299;28;20929;-77
2022/05/05 00:53:57;;;;;;;10.85;7.10;;;;;;;;;;4996694;28;20050;-77
2022/05/05 00:56:24;;;;;;;9.00;7.57;;;;;;;;;;5030135;28;20073;-77
2022/05/05 00:58:51;;;;;;;13.07;7.55;;;;;;;;;;5037357;28;20042;-77
2022/05/05 01:01:20;;;;;;;10.85;7.60;;;;;;;;;;5002624;28;20045;-76
2022/05/05 01:03:47;;;;;;;9.32;7.88;;;;;;;;;;4984398;28;20045;-78
2022/05/05 01:06:14;;;;;;;11.75;7.55;;;;;;;;;;4988026;28;20068;-76
2022/05/05 01:08:41;;;;;;;9.75;7.82;;;;;;;;;;4985641;28;20041;-76
2022/05/05 01:11:07;;;;;;;11.13;7.65;;;;;;;;;;4996079;28;20054;-77
2022/05/05 01:13:34;;;;;;;11.27;6.97;;;;;;;;;;4986458;28;20362;-77
2022/05/05 01:16:00;;;;;;;9.13;7.40;;;;;;;;;;4991530;28;20054;-77
2022/05/05 01:18:26;;;;;;;11.40;7.82;;;;;;;;;;4983481;28;20065;-77
2022/05/05 01:20:54;;;;;;;9.77;7.63;;;;;;;;;;4985036;28;20058;-77
2022/05/05 01:23:23;;;;;;;10.02;7.93;;;;;;;;;;4984381;28;21400;-77
2022/05/05 01:28:35;;;;;;;10.05;7.32;;;;;;;;;;4987429;28;20058;-77
2022/05/05 01:31:07;;;;;;;9.48;7.07;;;;;;;;;;4990895;28;20038;-77
2022/05/05 01:33:34;;;;;;;9.70;7.05;;;;;;;;;;4985501;28;20046;-76
2022/05/05 01:36:00;;;;;;;9.35;7.97;;;;;;;;;;4984320;28;20054;-76
2022/05/05 01:38:36;;;;;;;11.00;7.68;;;;;;;;;;4983210;28;20050;-76
2022/05/05 01:41:04;;;;;;;13.07;8.40;;;;;;;;;;4989397;28;20108;-77
2022/05/05 01:43:30;;;;;;;12.65;8.25;;;;;;;;;;4993575;28;20126;-76
2022/05/05 01:45:56;;;;;;;11.57;8.02;;;;;;;;;;4994300;28;20142;-77
2022/05/05 01:48:22;;;;;;;10.10;7.45;;;;;;;;;;4989522;28;20383;-77
2022/05/05 01:50:48;;;;;;;10.98;8.35;;;;;;;;;;4985660;28;20076;-77
2022/05/05 01:53:15;;;;;;;10.07;7.80;;;;;;;;;;4988608;28;20078;-76
2022/05/05 01:55:41;;;;;;;9.63;8.02;;;;;;;;;;4989455;28;20058;-79
2022/05/05 01:58:10;;;;;;;10.15;8.00;;;;;;;;;;4988685;28;20053;-76
2022/05/05 02:00:36;;;;;;;9.63;8.23;;;;;;;;;;5020210;28;20041;-76
2022/05/05 02:03:04;;;;;;;9.65;8.00;;;;;;;;;;4986034;28;20057;-77
2022/05/05 02:05:30;;;;;;;11.75;8.85;;;;;;;;;;4988110;28;20513;-77
2022/05/05 02:07:57;;;;;;;11.25;8.27;;;;;;;;;;4993400;28;20124;-76
2022/05/05 02:10:24;;;;;;;11.90;8.48;;;;;;;;;;4991232;28;20049;-79
2022/05/05 02:12:53;;;;;;;10.05;7.82;;;;;;;;;;4987492;28;20108;-77
2022/05/05 02:15:19;;;;;;;9.68;8.02;;;;;;;;;;4991977;28;20050;-77
2022/05/05 02:17:45;;;;;;;11.25;8.57;;;;;;;;;;4990364;28;20050;-76
2022/05/05 02:20:12;;;;;;;14.73;8.20;;;;;;;;;;5015282;28;20112;-78
2022/05/05 02:22:41;;;;;;;10.65;8.23;;;;;;;;;;4991786;28;20109;-76
2022/05/05 02:25:08;;;;;;;12.82;8.93;;;;;;;;;;4992745;28;20046;-76
2022/05/05 02:27:50;;;;;;;9.40;7.82;;;;;;;;;;4990229;28;20053;-77
2022/05/05 02:30:20;;;;;;;10.57;8.30;;;;;;;;;;4992531;28;20402;-76
2022/05/05 02:32:47;;;;;;;10.73;8.15;;;;;;;;;;4994300;28;20121;-76
2022/05/05 02:35:13;;;;;;;12.60;8.82;;;;;;;;;;4986652;28;20042;-77
2022/05/05 02:40:24;;;;;;;10.65;7.70;;;;;;;;;;4987548;28;20046;-76
2022/05/05 02:42:50;;;;;;;12.27;8.43;;;;;;;;;;4985485;28;20051;-76
2022/05/05 02:45:16;;;;;;;9.48;8.25;;;;;;;;;;4997850;28;20061;-76
2022/05/05 02:47:42;;;;;;;10.38;8.30;;;;;;;;;;4998954;28;20056;-77
2022/05/05 02:50:09;;;;;;;14.20;8.70;;;;;;;;;;4997626;28;20104;-77
2022/05/05 02:52:35;;;;;;;11.85;8.35;;;;;;;;;;5017384;28;20543;-77
2022/05/05 02:55:01;;;;;;;10.55;8.73;;;;;;;;;;4989074;28;20045;-77
2022/05/05 02:57:27;;;;;;;12.23;9.25;;;;;;;;;;4990258;28;20136;-76
2022/05/05 02:59:54;;;;;;;10.48;8.38;;;;;;;;;;5023281;28;20107;-76
2022/05/05 03:02:20;;;;;;;12.07;9.20;;;;;;;;;;5007392;28;20056;-76
2022/05/05 03:04:47;;;;;;;13.75;9.93;;;;;;;;;;5018244;28;20515;-76
2022/05/05 03:07:13;;;;;;;13.13;9.23;;;;;;;;;;5021979;28;20046;-76
2022/05/05 03:09:39;;;;;;;11.98;8.93;;;;;;;;;;5015494;28;20053;-76
2022/05/05 03:12:06;;;;;;;11.48;9.07;;;;;;;;;;5014821;28;20096;-77
2022/05/05 03:14:32;;;;;;;12.63;9.43;;;;;;;;;;4990329;28;20053;-76
2022/05/05 03:16:58;;;;;;;13.82;8.80;;;;;;;;;;4987927;28;20053;-77
2022/05/05 03:19:26;;;;;;;11.23;9.27;;;;;;;;;;4993663;28;20062;-76
2022/05/05 03:21:52;;;;;;;10.70;9.57;;;;;;;;;;4990663;28;20104;-77
2022/05/05 03:24:20;;;;;;;11.25;9.00;;;;;;;;;;4986618;28;20049;-76
2022/05/05 03:26:49;;;;;;;13.43;9.68;;;;;;;;;;4991671;28;20485;-76
2022/05/05 03:29:15;;;;;;;11.73;10.00;;;;;;;;;;4987421;28;20065;-77
2022/05/05 03:31:41;;;;;;;10.88;8.82;;;;;;;;;;4987479;28;20057;-76
2022/05/05 03:34:07;;;;;;;14.57;10.07;;;;;;;;;;4994867;28;20062;-76
2022/05/05 03:36:33;;;;;;;11.50;9.48;;;;;;;;;;4986556;28;20041;-77
2022/05/05 03:39:00;;;;;;;12.63;9.85;;;;;;;;;;4988196;28;20078;-77
2022/05/05 03:41:28;;;;;;;12.15;9.77;;;;;;;;;;4989192;28;20042;-76
2022/05/05 03:43:55;;;;;;;11.20;10.05;;;;;;;;;;5018589;28;20057;-77
2022/05/05 03:46:21;;;;;;;12.52;10.00;;;;;;;;;;4989388;28;20151;-76
2022/05/05 03:48:47;;;;;;;12.80;9.90;;;;;;;;;;4995033;28;20059;-77
2022/05/05 03:51:13;;;;;;;10.82;9.25;;;;;;;;;;5019223;28;20061;-77
2022/05/05 03:53:39;;;;;;;11.57;9.40;;;;;;;;;;4986490;28;20442;-76
2022/05/05 03:56:05;;;;;;;12.45;9.73;;;;;;;;;;4986436;28;20077;-77
2022/05/05 03:58:31;;;;;;;11.68;9.73;;;;;;;;;;5025992;28;20389;-77
2022/05/05 04:00:57;;;;;;;10.43;9.32;;;;;;;;;;5012723;28;20785;-77
2022/05/05 04:03:33;;;;;;;12.98;10.10;;;;;;;;;;4991045;28;20050;-77
2022/05/05 04:06:09;;;;;;;13.85;9.98;;;;;;;;;;4991745;28;20061;-77
2022/05/05 04:08:36;;;;;;;11.57;9.52;;;;;;;;;;5021071;28;20110;-78
2022/05/05 04:11:02;;;;;;;10.77;9.68;;;;;;;;;;4990291;28;20042;-77
2022/05/05 04:13:29;;;;;;;12.02;9.68;;;;;;;;;;4985264;28;20082;-77
2022/05/05 04:15:57;;;;;;;12.68;9.07;;;;;;;;;;4985058;28;20138;-77
2022/05/05 04:18:23;;;;;;;11.98;9.75;;;;;;;;;;4990289;28;20043;-77
2022/05/05 04:20:52;;;;;;;12.18;9.60;;;;;;;;;;4993577;28;20111;-77
2022/05/05 04:23:18;;;;;;;12.45;9.77;;;;;;;;;;5017652;28;20038;-77
2022/05/05 04:25:44;;;;;;;11.50;10.05;;;;;;;;;;5020889;28;20444;-77
2022/05/05 04:28:11;;;;;;;12.23;10.10;;;;;;;;;;4981818;28;20058;-77
2022/05/05 04:30:38;;;;;;;13.40;10.50;;;;;;;;;;4984388;28;20128;-77
2022/05/05 04:33:04;;;;;;;11.73;10.32;;;;;;;;;;4993631;28;20050;-77
2022/05/05 04:35:30;;;;;;;15.30;10.90;;;;;;;;;;4994886;28;20044;-76
2022/05/05 04:38:00;;;;;;;12.05;9.95;;;;;;;;;;5018616;28;20057;-76
2022/05/05 04:40:26;;;;;;;13.35;9.55;;;;;;;;;;4987737;28;20046;-77
2022/05/05 04:42:52;;;;;;;11.13;9.55;;;;;;;;;;5024168;28;20042;-76
2022/05/05 04:45:20;;;;;;;13.80;10.00;;;;;;;;;;4984645;28;20125;-77
2022/05/05 04:47:46;;;;;;;13.45;10.32;;;;;;;;;;4985017;28;20478;-77
2022/05/05 04:50:15;;;;;;;12.75;10.02;;;;;;;;;;4992918;28;20427;-77
2022/05/05 04:52:41;;;;;;;11.90;9.98;;;;;;;;;;4992700;28;20486;-77
2022/05/05 04:55:07;;;;;;;12.90;10.20;;;;;;;;;;4988628;28;20148;-77
2022/05/05 04:57:38;;;;;;;12.93;9.75;;;;;;;;;;4993518;28;20030;-77
2022/05/05 05:00:05;;;;;;;13.52;10.25;;;;;;;;;;4989030;28;20058;-77
2022/05/05 05:02:31;;;;;;;10.85;9.32;;;;;;;;;;4989835;28;20156;-76
2022/05/05 05:04:57;;;;;;;12.57;10.02;;;;;;;;;;4985410;28;20133;-77
2022/05/05 05:07:23;;;;;;;11.27;9.55;;;;;;;;;;4995875;28;20495;-76
2022/05/05 05:09:49;;;;;;;12.95;9.60;;;;;;;;;;4980893;28;20053;-77
2022/05/05 05:12:15;;;;;;;10.85;9.75;;;;;;;;;;4983941;28;20053;-77
2022/05/05 05:14:41;;;;;;;13.02;9.32;;;;;;;;;;4981851;28;20509;-77
2022/05/05 05:17:07;;;;;;;11.35;9.25;;;;;;;;;;4984086;28;20042;-77
2022/05/05 05:19:34;;;;;;;12.48;10.23;;;;;;;;;;4983783;28;20054;-77
2022/05/05 05:22:00;;;;;;;11.82;9.02;;;;;;;;;;4991796;28;20053;-77
2022/05/05 05:24:26;;;;;;;12.13;9.38;;;;;;;;;;4985005;28;20046;-77
2022/05/05 05:26:54;;;;;;;13.27;9.80;;;;;;;;;;4984494;28;20042;-76
2022/05/05 05:29:20;;;;;;;12.52;9.45;;;;;;;;;;4986365;28;20069;-76
2022/05/05 05:31:46;;;;;;;11.43;9.43;;;;;;;;;;5012703;28;20054;-76
2022/05/05 05:34:12;;;;;;;10.95;8.73;;;;;;;;;;5016155;28;20056;-77
2022/05/05 05:36:39;;;;;;;12.63;9.02;;;;;;;;;;5020391;28;20398;-77
2022/05/05 05:39:05;;;;;;;12.65;9.82;;;;;;;;;;4987735;28;20102;-77
2022/05/05 05:41:31;;;;;;;12.77;9.73;;;;;;;;;;4986661;28;20066;-77
2022/05/05 05:43:57;;;;;;;12.45;9.50;;;;;;;;;;5018071;28;20325;-76
2022/05/05 05:46:23;;;;;;;10.40;8.80;;;;;;;;;;4993917;28;20052;-77
2022/05/05 05:48:52;;;;;;;10.05;8.35;;;;;;;;;;5021566;28;20050;-78
2022/05/05 05:51:18;;;;;;;13.07;8.85;;;;;;;;;;4988188;28;20051;-77
2022/05/05 05:53:45;;;;;;;10.93;8.75;;;;;;;;;;5023027;28;20049;-76
2022/05/05 05:56:13;;;;;;;12.27;8.85;;;;;;;;;;5023800;28;20493;-76
2022/05/05 05:58:40;;;;;;;10.70;8.57;;;;;;;;;;4995113;28;20101;-77
2022/05/05 06:01:06;;;;;;;14.55;8.45;;;;;;;;;;4991875;28;20048;-77
2022/05/05 06:06:18;;;;;;;13.20;7.78;;;;;;;;;;5023299;28;20489;-77
2022/05/05 06:08:44;;;;;;;13.63;8.52;;;;;;;;;;5029614;28;20054;-77
2022/05/05 06:11:25;;;;;;;11.50;8.05;;;;;;;;;;4992844;28;20092;-77
2022/05/05 06:13:52;;;;;;;10.85;8.10;;;;;;;;;;4988767;28;20137;-76
2022/05/05 06:16:18;;;;;;;9.88;8.75;;;;;;;;;;4994332;28;20065;-77
2022/05/05 06:18:44;;;;;;;11.73;7.97;;;;;;;;;;4990697;28;20054;-77
2022/05/05 06:21:10;;;;;;;12.30;7.70;;;;;;;;;;5024571;28;20105;-77
2022/05/05 06:23:37;;;;;;;10.38;7.78;;;;;;;;;;4991806;28;20069;-77
2022/05/05 06:26:05;;;;;;;12.60;8.43;;;;;;;;;;4989576;28;21634;-77
2022/05/05 06:28:33;;;;;;;8.45;7.53;;;;;;;;;;4997103;28;20042;-77
2022/05/05 06:30:59;;;;;;;11.23;7.63;;;;;;;;;;4989828;28;20077;-77
2022/05/05 06:33:25;;;;;;;9.32;7.35;;;;;;;;;;4991178;28;20053;-77
2022/05/05 06:35:51;;;;;;;12.20;8.23;;;;;;;;;;4990031;28;20069;-77
2022/05/05 06:38:17;;;;;;;13.15;8.10;;;;;;;;;;4992914;28;20449;-75
2022/05/05 06:40:44;;;;;;;9.88;7.68;;;;;;;;;;5043828;28;20539;-76
2022/05/05 06:43:10;;;;;;;12.13;7.60;;;;;;;;;;5042978;28;20160;-76
2022/05/05 06:45:36;;;;;;;12.10;7.78;;;;;;;;;;5025454;28;20057;-76
2022/05/05 06:48:03;;;;;;;9.75;7.25;;;;;;;;;;5025053;28;20570;-76
2022/05/05 06:50:29;;;;;;;8.55;7.47;;;;;;;;;;5019433;28;20397;-76
2022/05/05 06:52:59;;;;;;;10.63;7.25;;;;;;;;;;5007205;28;20088;-75
2022/05/05 06:55:25;;;;;;;11.13;7.97;;;;;;;;;;5000331;28;20049;-74
2022/05/05 06:57:51;;;;;;;9.70;7.32;;;;;;;;;;5010570;28;20153;-75
2022/05/05 07:00:20;;;;;;;8.82;7.25;;;;;;;;;;5036339;28;20057;-77
2022/05/05 07:02:50;;;;;;;12.80;8.25;;;;;;;;;;5014626;28;20072;-76
2022/05/05 07:05:26;;;;;;;11.70;7.50;;;;;;;;;;5006766;28;20045;-76
2022/05/05 07:07:56;;;;;;;9.77;6.93;;;;;;;;;;4998424;28;20145;-76
2022/05/05 07:13:07;;;;;;;10.73;7.22;;;;;;;;;;5012472;28;20073;-76
2022/05/05 07:15:33;;;;;;;9.65;7.25;;;;;;;;;;5007400;28;20050;-77
2022/05/05 07:17:59;;;;;;;12.18;8.18;;;;;;;;;;5009081;28;20148;-76
2022/05/05 07:20:25;;;;;;;8.13;7.10;;;;;;;;;;5010449;28;20089;-76
2022/05/05 07:22:56;;;;;;;12.88;7.90;;;;;;;;;;5004852;28;20068;-76
2022/05/05 07:25:23;;;;;;;10.77;7.63;;;;;;;;;;5007749;28;20049;-76
2022/05/05 07:27:49;;;;;;;11.60;7.90;;;;;;;;;;5037737;28;20447;-77
2022/05/05 07:30:16;;;;;;;13.52;8.35;;;;;;;;;;5006559;28;20045;-77
2022/05/05 07:32:42;;;;;;;13.90;8.75;;;;;;;;;;5006955;28;20081;-78
2022/05/05 07:35:11;;;;;;;11.65;8.00;;;;;;;;;;5011241;28;20053;-78
2022/05/05 07:37:37;;;;;;;9.93;8.10;;;;;;;;;;5024329;28;20053;-77
2022/05/05 07:40:07;;;;;;;12.80;8.05;;;;;;;;;;4995984;28;20041;-80
2022/05/05 07:42:33;;;;;;;9.63;7.82;;;;;;;;;;5000723;28;20037;-79
2022/05/05 07:44:59;;;;;;;8.90;7.90;;;;;;;;;;4995036;28;20050;-80
2022/05/05 07:47:25;;;;;;;11.10;8.63;;;;;;;;;;5006467;28;20042;-79
2022/05/05 07:49:52;;;;;;;11.73;7.75;;;;;;;;;;5011195;28;20046;-80
2022/05/05 07:52:18;;;;;;;9.45;7.72;;;;;;;;;;5007501;28;20386;-78
2022/05/05 07:54:47;;;;;;;9.68;7.97;;;;;;;;;;4997662;28;20049;-79
2022/05/05 07:57:14;;;;;;;9.10;8.00;;;;;;;;;;5006820;28;20431;-79
2022/05/05 07:59:40;;;;;;;11.13;8.23;;;;;;;;;;5023210;28;20109;-78
2022/05/05 08:02:13;;;;;;;9.13;7.75;;;;;;;;;;5041819;28;20046;-79
2022/05/05 08:04:39;;;;;;;;;;;;;;;;;;5022802;28;20042;-78
2022/05/05 08:07:05;;;;;;;10.40;7.80;;;;;;;;;;5012166;28;20257;-77
2022/05/05 08:09:31;;;;;;;10.32;7.50;;;;;;;;;;5033726;28;20049;-78
2022/05/05 08:11:59;;;;;;;8.93;7.80;;;;;;;;;;4999352;28;20053;-77
2022/05/05 08:14:25;;;;;;;13.90;8.10;;;;;;;;;;4992567;28;20041;-78
2022/05/05 08:16:51;;;;;;;9.88;7.88;;;;;;;;;;4996728;28;20092;-78
2022/05/05 08:19:18;;;;;;;10.30;7.82;;;;;;;;;;4992176;28;20321;-78
2022/05/05 08:21:44;;;;;;;13.43;7.78;;;;;;;;;;4991238;28;20046;-78
2022/05/05 08:29:39;;;;;;;11.45;8.20;;;;;;;;;;4984060;28;20050;-80
2022/05/05 08:32:05;;;;;;;9.52;7.43;;;;;;;;;;4986211;28;20127;-80
2022/05/05 08:34:31;;;;;;;9.15;7.20;;;;;;;;;;4986186;28;20063;-80
2022/05/05 08:37:00;;;;;;;9.85;7.55;;;;;;;;;;4982826;28;20050;-80
2022/05/05 08:39:26;;;;;;;12.07;7.63;;;;;;;;;;5007045;28;20076;-80
2022/05/05 08:41:56;;;;;;;10.27;7.22;;;;;;;;;;5007417;28;20042;-81
2022/05/05 08:44:22;;;;;;;10.35;7.63;;;;;;;;;;4987883;28;20539;-80
2022/05/05 08:46:50;;;;;;;10.43;7.50;;;;;;;;;;4994183;28;20056;-80
2022/05/05 08:49:18;;;;;;;9.27;6.85;;;;;;;;;;4982320;28;20052;-80
2022/05/05 08:51:45;;;;;;;12.10;7.07;;;;;;;;;;4993362;28;20045;-79
2022/05/05 08:54:16;;;;;;;9.30;6.70;;;;;;;;;;4985268;28;20041;-80
2022/05/05 08:56:42;;;;;;;11.23;7.40;;;;;;;;;;4992508;28;20103;-80
2022/05/05 08:59:09;;;;;;;10.55;7.00;;;;;;;;;;5020035;28;20043;-77
2022/05/05 09:01:36;;;;;;;11.75;7.05;;;;;;;;;;5017256;28;20056;-77
2022/05/05 09:04:04;;;;;;;10.70;7.47;;;;;;;;;;5025280;28;20081;-77
2022/05/05 09:06:46;;;;;;;11.07;7.43;;;;;;;;;;5004203;28;20631;-76
2022/05/05 09:09:25;;;;;;;14.13;7.85;;;;;;;;;;5002729;28;20052;-76
2022/05/05 09:12:04;;;;;;;9.07;7.50;;;;;;;;;;5026623;28;20049;-76
2022/05/05 09:14:45;;;;;;;14.57;7.97;;;;;;;;;;4999656;28;20129;-76
2022/05/05 09:17:16;;;;;;;9.80;7.63;;;;;;;;;;5010525;28;20189;-76
2022/05/05 09:19:43;;;;;;;12.10;7.45;;;;;;;;;;5035163;28;20053;-76
2022/05/05 09:22:10;;;;;;;11.80;7.30;;;;;;;;;;5004809;28;20046;-76
2022/05/05 09:24:36;;;;;;;10.35;7.43;;;;;;;;;;4983139;28;20057;-76
2022/05/05 09:27:25;;;;;;;12.25;6.75;;;;;;;;;;5014794;28;20146;-76
2022/05/05 09:30:12;;;;;;;8.93;6.72;;;;;;;;;;5003214;28;20486;-76
2022/05/05 09:32:40;;;;;;;10.20;6.85;;;;;;;;;;4981251;28;20054;-76
2022/05/05 09:35:12;;;;;;;12.52;7.15;;;;;;;;;;4981716;28;20046;-76
2022/05/05 09:37:43;;;;;;;10.32;7.10;;;;;;;;;;5017047;28;20542;-76
2022/05/05 09:40:10;;;;;;;10.68;7.43;;;;;;;;;;4992473;28;20099;-75
2022/05/05 09:42:43;;;;;;;12.07;8.10;;;;;;;;;;5006158;28;20057;-75
2022/05/05 09:45:12;;;;;;;;;;;;;;;;;;5019649;28;20497;-75
2022/05/05 09:47:49;;;;;;;13.68;8.07;;;;;;;;;;4985239;28;19929;-75
2022/05/05 09:50:22;;;;;;;12.05;8.45;;;;;;;;;;4992111;28;20042;-75
2022/05/05 09:58:35;;;;;;;11.07;8.18;;;;;;;;;;5022524;28;20046;-75
2022/05/05 10:01:08;;;;;;;12.68;7.80;;;;;;;;;;4987269;28;20064;-74
2022/05/05 10:06:23;;;;;;;12.30;9.20;;;;;;;;;;4990591;28;19928;-75
2022/05/05 10:08:56;;;;;;;10.82;8.18;;;;;;;;;;4983512;28;20054;-75
2022/05/05 10:11:22;;;;;;;12.10;8.40;;;;;;;;;;4981480;28;20065;-76
2022/05/05 10:13:52;;;;;;;14.55;8.93;;;;;;;;;;4982585;28;20058;-75
2022/05/05 10:16:21;;;;;;;12.98;8.60;;;;;;;;;;4979366;28;20061;-75
2022/05/05 10:18:47;;;;;;;12.95;9.05;;;;;;;;;;4974211;28;20085;-76
2022/05/05 10:21:32;;;;;;;13.95;8.85;;;;;;;;;;4979118;28;20075;-76
2022/05/05 10:24:07;;;;;;;10.68;8.23;;;;;;;;;;5003843;28;20100;-76
2022/05/05 10:26:34;;;;;;;14.18;9.05;;;;;;;;;;5020336;28;20134;-75
2022/05/05 10:29:01;;;;;;;14.90;9.13;;;;;;;;;;5021129;28;20433;-75
2022/05/05 10:31:30;;;;;;;11.88;8.65;;;;;;;;;;4992539;28;20081;-75
2022/05/05 10:34:06;;;;;;;10.60;9.50;;;;;;;;;;4984621;28;20474;-75
2022/05/05 10:36:34;;;;;;;11.38;9.65;;;;;;;;;;5012477;28;20054;-75
2022/05/05 10:39:00;;;;;;;13.73;10.35;;;;;;;;;;4995131;28;20540;-75
2022/05/05 10:41:41;;;;;;;11.93;9.88;;;;;;;;;;4981318;28;20080;-75
2022/05/05 10:44:17;;;;;;;15.15;10.88;;;;;;;;;;5015221;28;20042;-75
2022/05/05 10:47:00;;;;;;;17.80;10.77;;;;;;;;;;5000742;28;20394;-76
2022/05/05 10:49:33;;;;;;;16.40;12.35;;;;;;;;;;4986347;28;20379;-76
2022/05/05 10:52:25;;;;;;;16.38;11.13;;;;;;;;;;5009660;28;20054;-77
2022/05/05 10:54:54;;;;;;;17.17;12.25;;;;;;;;;;5006803;28;20108;-75
2022/05/05 10:57:24;;;;;;;16.40;11.98;;;;;;;;;;4999675;28;20112;-74
2022/05/05 11:00:12;;;;;;;14.20;12.57;;;;;;;;;;5015724;28;20057;-75
2022/05/05 11:02:40;;;;;;;16.10;12.90;;;;;;;;;;5017205;28;20038;-75
2022/05/05 11:05:21;;;;;;;18.30;14.25;;;;;;;;;;5016827;28;20061;-75
2022/05/05 11:07:51;;;;;;;15.65;13.55;;;;;;;;;;5012784;28;20465;-75
2022/05/05 11:10:36;;;;;;;15.82;13.85;;;;;;;;;;5015208;28;20061;-75
2022/05/05 11:13:02;;;;;;;15.57;12.10;;;;;;;;;;5013703;28;20041;-75
2022/05/05 11:21:36;;;;;;;18.23;13.82;;;;;;;;;;4987053;28;20152;-77
2022/05/05 11:24:03;;;;;;;18.50;14.27;;;;;;;;;;4992984;28;20053;-73
2022/05/05 11:26:31;;;;;;;19.27;14.95;;;;;;;;;;5011171;28;20038;-76
2022/05/05 11:28:58;;;;;;;20.77;14.07;;;;;;;;;;5013867;28;20042;-75
2022/05/05 11:31:31;;;;;;;20.02;14.80;;;;;;;;;;5023238;28;20045;-75
2022/05/05 11:34:03;;;;;;;17.73;14.30;;;;;;;;;;4999283;28;20513;-76
2022/05/05 11:36:41;;;;;;;19.77;14.55;;;;;;;;;;5027145;28;20099;-75
2022/05/05 11:39:09;;;;;;;19.77;14.80;;;;;;;;;;5006257;28;20498;-75
2022/05/05 11:41:35;;;;;;;19.77;15.05;;;;;;;;;;5010353;28;20447;-75
2022/05/05 11:44:17;;;;;;;21.02;15.35;;;;;;;;;;4990195;28;20552;-75
2022/05/05 11:46:44;;;;;;;17.98;14.88;;;;;;;;;;5008411;28;20460;-75
2022/05/05 11:49:10;;;;;;;19.48;14.68;;;;;;;;;;5045342;28;20401;-75
2022/05/05 11:51:37;;;;;;;18.63;14.80;;;;;;;;;;5006411;28;20371;-75
2022/05/05 11:54:14;;;;;;;17.77;14.20;;;;;;;;;;5010630;28;20121;-75
2022/05/05 11:56:44;;;;;;;20.50;14.48;;;;;;;;;;5011190;28;20057;-75
2022/05/05 12:02:00;;;;;;;18.10;13.45;;;;;;;;;;5038737;28;20053;-75
2022/05/05 12:04:27;;;;;;;15.60;13.38;;;;;;;;;;5021726;28;20064;-75
2022/05/05 12:06:57;;;;;;;16.42;11.98;;;;;;;;;;5000997;28;20051;-75
2022/05/05 12:09:29;;;;;;;16.63;13.48;;;;;;;;;;5020077;28;20053;-75
2022/05/05 12:11:55;;;;;;;15.95;13.30;;;;;;;;;;5013531;28;20136;-75
2022/05/05 12:14:25;;;;;;;20.40;14.07;;;;;;;;;;5015450;28;20049;-75
2022/05/05 12:16:51;;;;;;;15.80;13.63;;;;;;;;;;5008533;28;20046;-75
2022/05/05 12:19:18;;;;;;;16.77;13.77;;;;;;;;;;5009116;28;20050;-74
2022/05/05 12:21:54;;;;;;;17.05;14.05;;;;;;;;;;5004638;28;20390;-75
2022/05/05 12:24:24;;;;;;;17.27;14.60;;;;;;;;;;5014338;28;20104;-75
2022/05/05 12:27:13;;;;;;;19.77;15.15;;;;;;;;;;5011837;28;20049;-75
2022/05/05 12:29:40;;;;;;;18.55;13.35;;;;;;;;;;5008706;28;20080;-75
2022/05/05 12:32:16;;;;;;;17.60;12.98;;;;;;;;;;5008144;28;20061;-75
2022/05/05 12:34:42;;;;;;;18.33;14.73;;;;;;;;;;5012782;28;20040;-76
2022/05/05 12:37:11;;;;;;;17.58;14.68;;;;;;;;;;5013042;28;20494;-76
2022/05/05 12:39:51;;;;;;;17.45;14.20;;;;;;;;;;5009482;28;20041;-76
2022/05/05 12:42:17;;;;;;;20.77;14.90;;;;;;;;;;5009108;28;20481;-78
2022/05/05 12:44:47;;;;;;;17.60;14.68;;;;;;;;;;5013615;28;20073;-78
2022/05/05 12:47:13;;;;;;;18.85;15.20;;;;;;;;;;5014753;28;20555;-78
2022/05/05 12:49:40;;;;;;;20.33;16.95;;;;;;;;;;5014610;28;20059;-77
2022/05/05 13:00:24;;;;;;;20.42;16.65;;;;;;;;;;5012698;28;20050;-77
2022/05/05 13:02:53;;;;;;;20.25;16.20;;;;;;;;;;5004487;28;20042;-76
2022/05/05 13:05:19;;;;;;;16.58;14.65;;;;;;;;;;5006414;28;20116;-77
2022/05/05 13:07:45;;;;;;;18.70;15.13;;;;;;;;;;4995553;28;20105;-76
2022/05/05 13:10:11;;;;;;;21.38;17.17;;;;;;;;;;5008739;28;20137;-80
2022/05/05 13:12:37;;;;;;;19.80;16.27;;;;;;;;;;5009347;28;20172;-80
2022/05/05 13:15:04;;;;;;;18.63;16.15;;;;;;;;;;5012547;28;20107;-81
2022/05/05 13:17:30;;;;;;;23.00;18.60;;;;;;;;;;5011266;28;20269;-81
2022/05/05 13:19:56;;;;;;;19.45;15.75;;;;;;;;;;5000209;28;20623;-81
2022/05/05 13:22:23;;;;;;;17.80;14.60;;;;;;;;;;5031803;28;20220;-80
2022/05/05 13:24:49;;;;;;;18.58;15.95;;;;;;;;;;5015078;28;20121;-80
2022/05/05 13:27:16;;;;;;;20.38;16.70;;;;;;;;;;5011178;28;20126;-81
2022/05/05 13:29:45;;;;;;;21.55;17.83;;;;;;;;;;5011208;28;20387;-81
2022/05/05 13:32:11;;;;;;;20.88;17.23;;;;;;;;;;4995424;28;20486;-81
2022/05/05 13:34:37;;;;;;;23.17;18.50;;;;;;;;;;4991449;28;20126;-81
2022/05/05 13:37:04;;;;;;;19.20;17.10;;;;;;;;;;4997614;28;20137;-81
2022/05/05 13:39:30;;;;;;;19.20;16.50;;;;;;;;;;5006116;28;21241;-81
2022/05/05 13:41:56;;;;;;;18.05;15.55;;;;;;;;;;5027591;28;20538;-80
2022/05/05 13:44:22;;;;;;;19.33;16.83;;;;;;;;;;5012145;28;20046;-80
2022/05/05 13:46:51;;;;;;;20.67;17.23;;;;;;;;;;5010285;28;20044;-81
2022/05/05 13:49:17;;;;;;;20.38;17.10;;;;;;;;;;5010678;28;20049;-86
2022/05/05 13:51:45;;;;;;;22.88;19.15;;;;;;;;;;5016874;28;20511;-83
2022/05/05 13:54:11;;;;;;;22.15;17.73;;;;;;;;;;5012378;28;20053;-83
2022/05/05 13:56:37;;;;;;;20.50;17.10;;;;;;;;;;5015562;28;20045;-84
2022/05/05 13:59:03;;;;;;;18.45;15.38;;;;;;;;;;5039280;28;20046;-85
2022/05/05 14:01:32;;;;;;;19.30;16.58;;;;;;;;;;5016770;28;20092;-84
2022/05/05 14:03:58;;;;;;;18.48;16.50;;;;;;;;;;5008789;28;20120;-84
2022/05/05 14:06:24;;;;;;;17.95;15.98;;;;;;;;;;5013099;28;20121;-86
2022/05/05 14:14:19;;;;;;;20.48;16.55;;;;;;;;;;5045988;28;20050;-88
2022/05/05 14:16:45;;;;;;;16.80;15.02;;;;;;;;;;5002702;28;20093;-85
2022/05/05 14:19:11;;;;;;;19.83;15.70;;;;;;;;;;5011719;28;20062;-86
2022/05/05 14:21:40;;;;;;;17.90;16.00;;;;;;;;;;5037702;28;20049;-84
2022/05/05 14:24:06;;;;;;;17.02;15.25;;;;;;;;;;5041711;28;20053;-84
2022/05/05 14:26:32;;;;;;;17.67;15.77;;;;;;;;;;5014232;28;20038;-85
2022/05/05 14:29:01;;;;;;;19.90;15.77;;;;;;;;;;5045395;28;20157;-85
2022/05/05 14:31:27;;;;;;;18.23;16.02;;;;;;;;;;5010934;28;20057;-85
2022/05/05 14:33:53;;;;;;;19.52;16.58;;;;;;;;;;5001156;28;20120;-85
2022/05/05 14:36:20;;;;;;;20.55;16.48;;;;;;;;;;5003587;28;20073;-87
2022/05/05 14:38:46;;;;;;;18.38;15.05;;;;;;;;;;5002168;28;20062;-86
2022/05/05 14:41:12;;;;;;;19.00;16.35;;;;;;;;;;5033306;28;20054;-83
2022/05/05 14:43:38;;;;;;;18.45;14.82;;;;;;;;;;5013690;28;20125;-85
2022/05/05 14:46:04;;;;;;;17.90;16.00;;;;;;;;;;5016181;28;20064;-87
2022/05/05 14:48:30;;;;;;;18.60;16.60;;;;;;;;;;5006189;28;20042;-81
2022/05/05 14:50:56;;;;;;;17.25;15.40;;;;;;;;;;5041811;28;20536;-80
2022/05/05 14:53:23;;;;;;;17.98;16.05;;;;;;;;;;5006532;28;20050;-80
2022/05/05 14:55:49;;;;;;;18.95;15.88;;;;;;;;;;5018745;28;20469;-80
2022/05/05 14:58:15;;;;;;;19.10;16.75;;;;;;;;;;5014574;28;20486;-81
2022/05/05 15:00:42;;;;;;;19.90;17.10;;;;;;;;;;5014837;28;20042;-80
2022/05/05 15:03:11;;;;;;;19.23;17.17;;;;;;;;;;5010561;28;20236;-80
2022/05/05 15:05:37;;;;;;;19.63;17.52;;;;;;;;;;5013491;28;20495;-80
2022/05/05 15:08:03;;;;;;;20.17;17.00;;;;;;;;;;5014788;28;20129;-80
2022/05/05 15:10:29;;;;;;;18.92;16.45;;;;;;;;;;5002367;28;20490;-80
2022/05/05 15:13:10;;;;;;;20.63;17.23;;;;;;;;;;5008462;28;20045;-79
2022/05/05 15:15:37;;;;;;;20.35;18.25;;;;;;;;;;5008656;28;20383;-79
2022/05/05 15:18:05;;;;;;;19.15;16.83;;;;;;;;;;5005409;28;20050;-79
2022/05/05 15:20:31;;;;;;;17.52;15.73;;;;;;;;;;5008381;28;20045;-79
2022/05/05 15:22:57;;;;;;;20.25;17.55;;;;;;;;;;5006445;28;20104;-79
2022/05/05 15:25:27;;;;;;;18.65;16.77;;;;;;;;;;5012453;28;20048;-82